sensor_id;sensor_type;location;lat;lon;timestamp;pressure;altitude;pressure_sealevel;temperature
12854;BMP180;6495;51.808;7.478;2022-09-16T00:01:10;100481.00;;;15.20
12854;BMP180;6495;51.808;7.478;2022-09-16T00:03:40;100470.00;;;15.10
12854;BMP180;6495;51.808;7.478;2022-09-16T00:06:19;100473.00;;;15.10
12854;BMP180;6495;51.808;7.478;2022-09-16T00:08:48;100473.00;;;15.10
12854;BMP180;6495;51.808;7.478;2022-09-16T00:11:17;100480.00;;;15.10
12854;BMP180;6495;51.808;7.478;2022-09-16T00:13:46;100472.00;;;15.10
12854;BMP180;6495;51.808;7.478;2022-09-16T00:16:18;100476.00;;;15.00
12854;BMP180;6495;51.808;7.478;2022-09-16T00:18:47;100476.00;;;15.00
12854;BMP180;6495;51.808;7.478;2022-09-16T00:21:16;100475.00;;;15.00
12854;BMP180;6495;51.808;7.478;2022-09-16T00:23:44;100477.00;;;14.90
12854;BMP180;6495;51.808;7.478;2022-09-16T00:26:13;100477.00;;;14.90
12854;BMP180;6495;51.808;7.478;2022-09-16T00:28:41;100482.00;;;14.90
12854;BMP180;6495;51.808;7.478;2022-09-16T00:31:09;100484.00;;;14.80
12854;BMP180;6495;51.808;7.478;2022-09-16T00:33:37;100479.00;;;14.80
12854;BMP180;6495;51.808;7.478;2022-09-16T00:36:09;100466.00;;;14.80
12854;BMP180;6495;51.808;7.478;2022-09-16T00:38:40;100476.00;;;14.80
12854;BMP180;6495;51.808;7.478;2022-09-16T00:41:15;100471.00;;;14.70
12854;BMP180;6495;51.808;7.478;2022-09-16T00:43:54;100463.00;;;14.70
12854;BMP180;6495;51.808;7.478;2022-09-16T00:46:31;100470.00;;;14.70
12854;BMP180;6495;51.808;7.478;2022-09-16T00:49:05;100465.00;;;14.70
12854;BMP180;6495;51.808;7.478;2022-09-16T00:51:37;100474.00;;;14.70
12854;BMP180;6495;51.808;7.478;2022-09-16T00:54:09;100473.00;;;14.70
12854;BMP180;6495;51.808;7.478;2022-09-16T00:56:42;100474.00;;;14.70
12854;BMP180;6495;51.808;7.478;2022-09-16T00:59:16;100474.00;;;14.70
12854;BMP180;6495;51.808;7.478;2022-09-16T01:01:47;100470.00;;;14.70
12854;BMP180;6495;51.808;7.478;2022-09-16T01:04:20;100472.00;;;14.60
12854;BMP180;6495;51.808;7.478;2022-09-16T01:06:50;100472.00;;;14.60
12854;BMP180;6495;51.808;7.478;2022-09-16T01:09:22;100469.00;;;14.60
12854;BMP180;6495;51.808;7.478;2022-09-16T01:11:51;100471.00;;;14.60
12854;BMP180;6495;51.808;7.478;2022-09-16T01:14:21;100467.00;;;14.70
12854;BMP180;6495;51.808;7.478;2022-09-16T01:17:19;100469.00;;;14.70
12854;BMP180;6495;51.808;7.478;2022-09-16T01:27:03;100472.00;;;14.60
12854;BMP180;6495;51.808;7.478;2022-09-16T01:30:02;100476.00;;;14.60
12854;BMP180;6495;51.808;7.478;2022-09-16T01:33:00;100480.00;;;14.60
12854;BMP180;6495;51.808;7.478;2022-09-16T01:35:52;100475.00;;;14.60
12854;BMP180;6495;51.808;7.478;2022-09-16T01:38:39;100472.00;;;14.50
12854;BMP180;6495;51.808;7.478;2022-09-16T01:41:23;100476.00;;;14.50
12854;BMP180;6495;51.808;7.478;2022-09-16T01:44:02;100471.00;;;14.50
12854;BMP180;6495;51.808;7.478;2022-09-16T01:46:42;100465.00;;;14.50
12854;BMP180;6495;51.808;7.478;2022-09-16T01:49:19;100469.00;;;14.50
12854;BMP180;6495;51.808;7.478;2022-09-16T01:51:56;100469.00;;;14.50
12854;BMP180;6495;51.808;7.478;2022-09-16T01:54:37;100474.00;;;14.50
12854;BMP180;6495;51.808;7.478;2022-09-16T01:57:15;100469.00;;;14.50
12854;BMP180;6495;51.808;7.478;2022-09-16T01:59:49;100469.00;;;14.50
12854;BMP180;6495;51.808;7.478;2022-09-16T02:02:25;100463.00;;;14.50
12854;BMP180;6495;51.808;7.478;2022-09-16T02:05:00;100470.00;;;14.50
12854;BMP180;6495;51.808;7.478;2022-09-16T02:07:34;100468.00;;;14.50
12854;BMP180;6495;51.808;7.478;2022-09-16T02:10:12;100469.00;;;14.50
12854;BMP180;6495;51.808;7.478;2022-09-16T02:12:44;100464.00;;;14.50
12854;BMP180;6495;51.808;7.478;2022-09-16T02:15:18;100457.00;;;14.50
12854;BMP180;6495;51.808;7.478;2022-09-16T02:17:55;100457.00;;;14.40
12854;BMP180;6495;51.808;7.478;2022-09-16T02:20:30;100462.00;;;14.40
12854;BMP180;6495;51.808;7.478;2022-09-16T02:23:05;100450.00;;;14.40
12854;BMP180;6495;51.808;7.478;2022-09-16T02:25:38;100460.00;;;14.40
12854;BMP180;6495;51.808;7.478;2022-09-16T02:28:15;100462.00;;;14.40
12854;BMP180;6495;51.808;7.478;2022-09-16T02:30:50;100465.00;;;14.40
12854;BMP180;6495;51.808;7.478;2022-09-16T02:33:21;100462.00;;;14.40
12854;BMP180;6495;51.808;7.478;2022-09-16T02:35:54;100457.00;;;14.40
12854;BMP180;6495;51.808;7.478;2022-09-16T02:38:25;100458.00;;;14.40
12854;BMP180;6495;51.808;7.478;2022-09-16T02:40:59;100452.00;;;14.30
12854;BMP180;6495;51.808;7.478;2022-09-16T02:43:28;100453.00;;;14.30
12854;BMP180;6495;51.808;7.478;2022-09-16T02:46:08;100445.00;;;14.30
12854;BMP180;6495;51.808;7.478;2022-09-16T02:48:50;100442.00;;;14.30
12854;BMP180;6495;51.808;7.478;2022-09-16T02:51:31;100436.00;;;14.30
12854;BMP180;6495;51.808;7.478;2022-09-16T02:54:06;100444.00;;;14.20
12854;BMP180;6495;51.808;7.478;2022-09-16T02:56:39;100447.00;;;14.20
12854;BMP180;6495;51.808;7.478;2022-09-16T02:59:11;100446.00;;;14.20
12854;BMP180;6495;51.808;7.478;2022-09-16T03:01:43;100447.00;;;14.30
12854;BMP180;6495;51.808;7.478;2022-09-16T03:04:15;100441.00;;;14.30
12854;BMP180;6495;51.808;7.478;2022-09-16T03:06:45;100449.00;;;14.30
12854;BMP180;6495;51.808;7.478;2022-09-16T03:09:15;100437.00;;;14.30
12854;BMP180;6495;51.808;7.478;2022-09-16T03:12:30;100442.00;;;14.30
12854;BMP180;6495;51.808;7.478;2022-09-16T03:15:27;100441.00;;;14.30
12854;BMP180;6495;51.808;7.478;2022-09-16T03:18:33;100444.00;;;14.30
12854;BMP180;6495;51.808;7.478;2022-09-16T03:21:12;100438.00;;;14.30
12854;BMP180;6495;51.808;7.478;2022-09-16T03:23:55;100438.00;;;14.30
12854;BMP180;6495;51.808;7.478;2022-09-16T03:26:35;100446.00;;;14.30
12854;BMP180;6495;51.808;7.478;2022-09-16T03:29:16;100448.00;;;14.30
12854;BMP180;6495;51.808;7.478;2022-09-16T03:31:53;100446.00;;;14.30
12854;BMP180;6495;51.808;7.478;2022-09-16T03:34:30;100443.00;;;14.30
12854;BMP180;6495;51.808;7.478;2022-09-16T03:37:05;100443.00;;;14.30
12854;BMP180;6495;51.808;7.478;2022-09-16T03:39:36;100447.00;;;14.30
12854;BMP180;6495;51.808;7.478;2022-09-16T03:42:07;100441.00;;;14.30
12854;BMP180;6495;51.808;7.478;2022-09-16T03:44:39;100437.00;;;14.30
12854;BMP180;6495;51.808;7.478;2022-09-16T03:47:07;100425.00;;;14.30
12854;BMP180;6495;51.808;7.478;2022-09-16T03:49:36;100442.00;;;14.30
12854;BMP180;6495;51.808;7.478;2022-09-16T03:52:05;100434.00;;;14.20
12854;BMP180;6495;51.808;7.478;2022-09-16T03:54:35;100433.00;;;14.20
12854;BMP180;6495;51.808;7.478;2022-09-16T03:57:04;100439.00;;;14.20
12854;BMP180;6495;51.808;7.478;2022-09-16T03:59:32;100434.00;;;14.20
12854;BMP180;6495;51.808;7.478;2022-09-16T04:02:03;100434.00;;;14.20
12854;BMP180;6495;51.808;7.478;2022-09-16T04:04:31;100434.00;;;14.20
12854;BMP180;6495;51.808;7.478;2022-09-16T04:07:00;100440.00;;;14.20
12854;BMP180;6495;51.808;7.478;2022-09-16T04:09:27;100428.00;;;14.20
12854;BMP180;6495;51.808;7.478;2022-09-16T04:11:57;100431.00;;;14.20
12854;BMP180;6495;51.808;7.478;2022-09-16T04:14:25;100430.00;;;14.20
12854;BMP180;6495;51.808;7.478;2022-09-16T04:16:54;100424.00;;;14.10
12854;BMP180;6495;51.808;7.478;2022-09-16T04:19:24;100428.00;;;14.10
12854;BMP180;6495;51.808;7.478;2022-09-16T04:21:52;100425.00;;;14.10
12854;BMP180;6495;51.808;7.478;2022-09-16T04:24:20;100425.00;;;14.10
12854;BMP180;6495;51.808;7.478;2022-09-16T04:26:48;100419.00;;;14.10
12854;BMP180;6495;51.808;7.478;2022-09-16T04:29:17;100431.00;;;14.10
12854;BMP180;6495;51.808;7.478;2022-09-16T04:31:46;100426.00;;;14.10
12854;BMP180;6495;51.808;7.478;2022-09-16T04:34:14;100426.00;;;14.10
12854;BMP180;6495;51.808;7.478;2022-09-16T04:36:42;100423.00;;;14.10
12854;BMP180;6495;51.808;7.478;2022-09-16T04:39:10;100422.00;;;14.00
12854;BMP180;6495;51.808;7.478;2022-09-16T04:41:39;100423.00;;;14.00
12854;BMP180;6495;51.808;7.478;2022-09-16T04:44:09;100415.00;;;14.00
12854;BMP180;6495;51.808;7.478;2022-09-16T04:46:39;100421.00;;;14.00
12854;BMP180;6495;51.808;7.478;2022-09-16T04:49:07;100416.00;;;14.00
12854;BMP180;6495;51.808;7.478;2022-09-16T04:51:37;100412.00;;;14.00
12854;BMP180;6495;51.808;7.478;2022-09-16T04:54:05;100427.00;;;14.00
12854;BMP180;6495;51.808;7.478;2022-09-16T04:56:34;100428.00;;;14.00
12854;BMP180;6495;51.808;7.478;2022-09-16T04:59:03;100416.00;;;14.00
12854;BMP180;6495;51.808;7.478;2022-09-16T05:01:35;100427.00;;;14.00
12854;BMP180;6495;51.808;7.478;2022-09-16T05:04:06;100423.00;;;14.00
12854;BMP180;6495;51.808;7.478;2022-09-16T05:06:39;100421.00;;;14.00
12854;BMP180;6495;51.808;7.478;2022-09-16T05:09:10;100426.00;;;13.90
12854;BMP180;6495;51.808;7.478;2022-09-16T05:11:39;100431.00;;;13.90
12854;BMP180;6495;51.808;7.478;2022-09-16T05:14:13;100433.00;;;14.00
12854;BMP180;6495;51.808;7.478;2022-09-16T05:16:42;100414.00;;;13.90
12854;BMP180;6495;51.808;7.478;2022-09-16T05:19:13;100424.00;;;13.90
12854;BMP180;6495;51.808;7.478;2022-09-16T05:21:42;100422.00;;;13.90
12854;BMP180;6495;51.808;7.478;2022-09-16T05:24:12;100431.00;;;13.90
12854;BMP180;6495;51.808;7.478;2022-09-16T05:26:42;100426.00;;;13.90
12854;BMP180;6495;51.808;7.478;2022-09-16T05:29:13;100419.00;;;13.90
12854;BMP180;6495;51.808;7.478;2022-09-16T05:31:44;100425.00;;;13.90
12854;BMP180;6495;51.808;7.478;2022-09-16T05:34:17;100417.00;;;13.90
12854;BMP180;6495;51.808;7.478;2022-09-16T05:36:46;100419.00;;;13.90
12854;BMP180;6495;51.808;7.478;2022-09-16T05:39:17;100413.00;;;13.90
12854;BMP180;6495;51.808;7.478;2022-09-16T05:41:54;100412.00;;;13.90
12854;BMP180;6495;51.808;7.478;2022-09-16T05:44:23;100420.00;;;13.90
12854;BMP180;6495;51.808;7.478;2022-09-16T05:46:52;100426.00;;;13.90
12854;BMP180;6495;51.808;7.478;2022-09-16T05:49:21;100419.00;;;13.90
12854;BMP180;6495;51.808;7.478;2022-09-16T05:51:51;100431.00;;;13.80
12854;BMP180;6495;51.808;7.478;2022-09-16T05:54:20;100432.00;;;13.80
12854;BMP180;6495;51.808;7.478;2022-09-16T05:56:51;100435.00;;;13.80
12854;BMP180;6495;51.808;7.478;2022-09-16T05:59:19;100430.00;;;13.80
12854;BMP180;6495;51.808;7.478;2022-09-16T06:01:48;100435.00;;;13.80
12854;BMP180;6495;51.808;7.478;2022-09-16T06:04:16;100435.00;;;13.80
12854;BMP180;6495;51.808;7.478;2022-09-16T06:06:46;100438.00;;;13.80
12854;BMP180;6495;51.808;7.478;2022-09-16T06:09:18;100437.00;;;13.80
12854;BMP180;6495;51.808;7.478;2022-09-16T06:11:49;100440.00;;;13.80
12854;BMP180;6495;51.808;7.478;2022-09-16T06:14:18;100450.00;;;13.80
12854;BMP180;6495;51.808;7.478;2022-09-16T06:16:48;100449.00;;;13.80
12854;BMP180;6495;51.808;7.478;2022-09-16T06:19:17;100458.00;;;13.80
12854;BMP180;6495;51.808;7.478;2022-09-16T06:21:47;100453.00;;;13.80
12854;BMP180;6495;51.808;7.478;2022-09-16T06:24:18;100456.00;;;13.80
12854;BMP180;6495;51.808;7.478;2022-09-16T06:26:47;100449.00;;;13.90
12854;BMP180;6495;51.808;7.478;2022-09-16T06:29:16;100454.00;;;13.80
12854;BMP180;6495;51.808;7.478;2022-09-16T06:31:44;100457.00;;;13.90
12854;BMP180;6495;51.808;7.478;2022-09-16T06:34:15;100453.00;;;13.90
12854;BMP180;6495;51.808;7.478;2022-09-16T06:36:44;100452.00;;;13.90
12854;BMP180;6495;51.808;7.478;2022-09-16T06:39:15;100449.00;;;13.90
12854;BMP180;6495;51.808;7.478;2022-09-16T06:41:44;100447.00;;;13.90
12854;BMP180;6495;51.808;7.478;2022-09-16T06:44:12;100440.00;;;13.90
12854;BMP180;6495;51.808;7.478;2022-09-16T06:46:40;100446.00;;;13.90
12854;BMP180;6495;51.808;7.478;2022-09-16T06:49:11;100454.00;;;13.80
12854;BMP180;6495;51.808;7.478;2022-09-16T06:51:39;100447.00;;;13.80
12854;BMP180;6495;51.808;7.478;2022-09-16T06:54:08;100450.00;;;13.90
12854;BMP180;6495;51.808;7.478;2022-09-16T06:56:38;100450.00;;;13.90
12854;BMP180;6495;51.808;7.478;2022-09-16T06:59:08;100435.00;;;13.90
12854;BMP180;6495;51.808;7.478;2022-09-16T07:01:37;100441.00;;;13.90
12854;BMP180;6495;51.808;7.478;2022-09-16T07:04:07;100441.00;;;13.90
12854;BMP180;6495;51.808;7.478;2022-09-16T07:06:39;100439.00;;;13.90
12854;BMP180;6495;51.808;7.478;2022-09-16T07:09:27;100431.00;;;13.90
12854;BMP180;6495;51.808;7.478;2022-09-16T07:11:57;100437.00;;;13.90
12854;BMP180;6495;51.808;7.478;2022-09-16T07:14:26;100436.00;;;14.00
12854;BMP180;6495;51.808;7.478;2022-09-16T07:16:55;100433.00;;;14.00
12854;BMP180;6495;51.808;7.478;2022-09-16T07:19:24;100435.00;;;14.00
12854;BMP180;6495;51.808;7.478;2022-09-16T07:21:52;100436.00;;;14.00
12854;BMP180;6495;51.808;7.478;2022-09-16T07:24:20;100445.00;;;14.00
12854;BMP180;6495;51.808;7.478;2022-09-16T07:26:48;100443.00;;;14.00
12854;BMP180;6495;51.808;7.478;2022-09-16T07:29:18;100447.00;;;14.10
12854;BMP180;6495;51.808;7.478;2022-09-16T07:31:46;100450.00;;;14.10
12854;BMP180;6495;51.808;7.478;2022-09-16T07:34:15;100447.00;;;14.20
12854;BMP180;6495;51.808;7.478;2022-09-16T07:36:46;100452.00;;;14.30
12854;BMP180;6495;51.808;7.478;2022-09-16T07:39:16;100462.00;;;14.40
12854;BMP180;6495;51.808;7.478;2022-09-16T07:41:46;100468.00;;;14.50
12854;BMP180;6495;51.808;7.478;2022-09-16T07:44:19;100461.00;;;14.60
12854;BMP180;6495;51.808;7.478;2022-09-16T07:46:48;100459.00;;;14.70
12854;BMP180;6495;51.808;7.478;2022-09-16T07:49:17;100476.00;;;14.80
12854;BMP180;6495;51.808;7.478;2022-09-16T07:51:46;100477.00;;;14.90
12854;BMP180;6495;51.808;7.478;2022-09-16T07:54:16;100475.00;;;15.10
12854;BMP180;6495;51.808;7.478;2022-09-16T07:56:45;100476.00;;;15.20
12854;BMP180;6495;51.808;7.478;2022-09-16T07:59:18;100485.00;;;15.30
12854;BMP180;6495;51.808;7.478;2022-09-16T08:01:47;100485.00;;;15.30
12854;BMP180;6495;51.808;7.478;2022-09-16T08:04:18;100475.00;;;15.40
12854;BMP180;6495;51.808;7.478;2022-09-16T08:06:47;100478.00;;;15.60
12854;BMP180;6495;51.808;7.478;2022-09-16T08:09:15;100475.00;;;15.70
12854;BMP180;6495;51.808;7.478;2022-09-16T08:12:05;100476.00;;;15.80
12854;BMP180;6495;51.808;7.478;2022-09-16T08:14:38;100485.00;;;15.90
12854;BMP180;6495;51.808;7.478;2022-09-16T08:17:06;100476.00;;;16.00
12854;BMP180;6495;51.808;7.478;2022-09-16T08:19:34;100480.00;;;16.10
12854;BMP180;6495;51.808;7.478;2022-09-16T08:22:04;100485.00;;;16.20
12854;BMP180;6495;51.808;7.478;2022-09-16T08:24:32;100485.00;;;16.40
12854;BMP180;6495;51.808;7.478;2022-09-16T08:27:00;100477.00;;;16.40
12854;BMP180;6495;51.808;7.478;2022-09-16T08:29:28;100478.00;;;16.50
12854;BMP180;6495;51.808;7.478;2022-09-16T08:31:58;100489.00;;;16.60
12854;BMP180;6495;51.808;7.478;2022-09-16T08:34:26;100490.00;;;16.70
12854;BMP180;6495;51.808;7.478;2022-09-16T08:36:54;100491.00;;;16.70
12854;BMP180;6495;51.808;7.478;2022-09-16T08:39:22;100488.00;;;16.70
12854;BMP180;6495;51.808;7.478;2022-09-16T08:42:28;100491.00;;;16.80
12854;BMP180;6495;51.808;7.478;2022-09-16T08:45:22;100492.00;;;16.90
12854;BMP180;6495;51.808;7.478;2022-09-16T08:48:11;100487.00;;;17.00
12854;BMP180;6495;51.808;7.478;2022-09-16T08:50:44;100497.00;;;17.10
12854;BMP180;6495;51.808;7.478;2022-09-16T08:53:20;100495.00;;;17.30
12854;BMP180;6495;51.808;7.478;2022-09-16T08:55:51;100497.00;;;17.50
12854;BMP180;6495;51.808;7.478;2022-09-16T08:58:22;100499.00;;;17.60
12854;BMP180;6495;51.808;7.478;2022-09-16T09:00:55;100492.00;;;17.70
12854;BMP180;6495;51.808;7.478;2022-09-16T09:03:36;100499.00;;;17.80
12854;BMP180;6495;51.808;7.478;2022-09-16T09:09:19;100498.00;;;17.90
12854;BMP180;6495;51.808;7.478;2022-09-16T09:12:06;100495.00;;;17.90
12854;BMP180;6495;51.808;7.478;2022-09-16T09:14:55;100506.00;;;18.00
12854;BMP180;6495;51.808;7.478;2022-09-16T09:17:38;100513.00;;;18.10
12854;BMP180;6495;51.808;7.478;2022-09-16T09:20:33;100505.00;;;18.20
12854;BMP180;6495;51.808;7.478;2022-09-16T09:23:22;100505.00;;;18.30
12854;BMP180;6495;51.808;7.478;2022-09-16T09:26:03;100507.00;;;18.20
12854;BMP180;6495;51.808;7.478;2022-09-16T09:29:13;100504.00;;;18.20
12854;BMP180;6495;51.808;7.478;2022-09-16T09:32:01;100496.00;;;18.10
12854;BMP180;6495;51.808;7.478;2022-09-16T09:34:45;100497.00;;;18.20
12854;BMP180;6495;51.808;7.478;2022-09-16T09:37:36;100494.00;;;18.20
12854;BMP180;6495;51.808;7.478;2022-09-16T09:40:14;100500.00;;;18.30
12854;BMP180;6495;51.808;7.478;2022-09-16T09:42:50;100492.00;;;18.30
12854;BMP180;6495;51.808;7.478;2022-09-16T09:45:27;100490.00;;;18.30
12854;BMP180;6495;51.808;7.478;2022-09-16T09:48:02;100495.00;;;18.40
12854;BMP180;6495;51.808;7.478;2022-09-16T09:50:40;100486.00;;;18.40
12854;BMP180;6495;51.808;7.478;2022-09-16T09:53:21;100478.00;;;18.40
12854;BMP180;6495;51.808;7.478;2022-09-16T09:55:59;100480.00;;;18.50
12854;BMP180;6495;51.808;7.478;2022-09-16T09:58:34;100479.00;;;18.60
12854;BMP180;6495;51.808;7.478;2022-09-16T10:01:04;100480.00;;;18.70
12854;BMP180;6495;51.808;7.478;2022-09-16T10:03:33;100476.00;;;18.80
12854;BMP180;6495;51.808;7.478;2022-09-16T10:06:04;100489.00;;;18.80
12854;BMP180;6495;51.808;7.478;2022-09-16T10:08:41;100485.00;;;18.80
12854;BMP180;6495;51.808;7.478;2022-09-16T10:11:17;100479.00;;;18.70
12854;BMP180;6495;51.808;7.478;2022-09-16T10:13:48;100486.00;;;18.60
12854;BMP180;6495;51.808;7.478;2022-09-16T10:16:20;100492.00;;;18.50
12854;BMP180;6495;51.808;7.478;2022-09-16T10:18:59;100481.00;;;18.40
12854;BMP180;6495;51.808;7.478;2022-09-16T10:21:40;100487.00;;;18.40
12854;BMP180;6495;51.808;7.478;2022-09-16T10:24:30;100484.00;;;18.30
12854;BMP180;6495;51.808;7.478;2022-09-16T10:27:19;100490.00;;;18.30
12854;BMP180;6495;51.808;7.478;2022-09-16T10:30:09;100484.00;;;18.30
12854;BMP180;6495;51.808;7.478;2022-09-16T10:32:55;100482.00;;;18.40
12854;BMP180;6495;51.808;7.478;2022-09-16T10:35:26;100475.00;;;18.40
12854;BMP180;6495;51.808;7.478;2022-09-16T10:37:57;100478.00;;;18.50
12854;BMP180;6495;51.808;7.478;2022-09-16T10:40:27;100477.00;;;18.60
12854;BMP180;6495;51.808;7.478;2022-09-16T10:43:01;100479.00;;;18.70
12854;BMP180;6495;51.808;7.478;2022-09-16T10:45:33;100475.00;;;18.70
12854;BMP180;6495;51.808;7.478;2022-09-16T10:48:09;100477.00;;;18.80
12854;BMP180;6495;51.808;7.478;2022-09-16T10:50:38;100471.00;;;19.00
12854;BMP180;6495;51.808;7.478;2022-09-16T10:53:25;100474.00;;;19.20
12854;BMP180;6495;51.808;7.478;2022-09-16T10:56:03;100479.00;;;19.20
12854;BMP180;6495;51.808;7.478;2022-09-16T10:58:32;100473.00;;;19.20
12854;BMP180;6495;51.808;7.478;2022-09-16T11:01:19;100469.00;;;19.40
12854;BMP180;6495;51.808;7.478;2022-09-16T11:07:14;100468.00;;;19.70
12854;BMP180;6495;51.808;7.478;2022-09-16T11:09:55;100471.00;;;19.80
12854;BMP180;6495;51.808;7.478;2022-09-16T11:12:56;100471.00;;;19.90
12854;BMP180;6495;51.808;7.478;2022-09-16T11:15:50;100470.00;;;19.90
12854;BMP180;6495;51.808;7.478;2022-09-16T11:18:45;100479.00;;;20.00
12854;BMP180;6495;51.808;7.478;2022-09-16T11:21:39;100479.00;;;19.90
12854;BMP180;6495;51.808;7.478;2022-09-16T11:24:41;100478.00;;;19.70
12854;BMP180;6495;51.808;7.478;2022-09-16T11:27:26;100481.00;;;19.60
12854;BMP180;6495;51.808;7.478;2022-09-16T11:30:07;100476.00;;;19.60
12854;BMP180;6495;51.808;7.478;2022-09-16T11:32:58;100472.00;;;19.50
12854;BMP180;6495;51.808;7.478;2022-09-16T11:38:35;100467.00;;;19.30
12854;BMP180;6495;51.808;7.478;2022-09-16T11:41:20;100478.00;;;19.40
12854;BMP180;6495;51.808;7.478;2022-09-16T11:44:12;100479.00;;;19.50
12854;BMP180;6495;51.808;7.478;2022-09-16T11:46:56;100469.00;;;19.50
12854;BMP180;6495;51.808;7.478;2022-09-16T11:49:50;100473.00;;;19.70
12854;BMP180;6495;51.808;7.478;2022-09-16T11:52:48;100477.00;;;19.70
12854;BMP180;6495;51.808;7.478;2022-09-16T11:55:34;100480.00;;;19.80
12854;BMP180;6495;51.808;7.478;2022-09-16T11:58:19;100472.00;;;19.70
12854;BMP180;6495;51.808;7.478;2022-09-16T12:00:51;100469.00;;;19.70
12854;BMP180;6495;51.808;7.478;2022-09-16T12:03:31;100463.00;;;19.70
12854;BMP180;6495;51.808;7.478;2022-09-16T12:06:07;100471.00;;;19.50
12854;BMP180;6495;51.808;7.478;2022-09-16T12:08:52;100477.00;;;19.50
12854;BMP180;6495;51.808;7.478;2022-09-16T12:11:27;100476.00;;;19.50
12854;BMP180;6495;51.808;7.478;2022-09-16T12:14:09;100478.00;;;19.40
12854;BMP180;6495;51.808;7.478;2022-09-16T12:16:45;100487.00;;;19.20
12854;BMP180;6495;51.808;7.478;2022-09-16T12:19:22;100487.00;;;19.10
12854;BMP180;6495;51.808;7.478;2022-09-16T12:21:58;100485.00;;;19.00
12854;BMP180;6495;51.808;7.478;2022-09-16T12:24:36;100483.00;;;18.80
12854;BMP180;6495;51.808;7.478;2022-09-16T12:27:24;100490.00;;;18.70
12854;BMP180;6495;51.808;7.478;2022-09-16T12:30:00;100485.00;;;18.70
12854;BMP180;6495;51.808;7.478;2022-09-16T12:32:43;100496.00;;;18.60
12854;BMP180;6495;51.808;7.478;2022-09-16T12:35:20;100492.00;;;18.50
12854;BMP180;6495;51.808;7.478;2022-09-16T12:37:53;100487.00;;;18.40
12854;BMP180;6495;51.808;7.478;2022-09-16T12:40:25;100485.00;;;18.40
12854;BMP180;6495;51.808;7.478;2022-09-16T12:43:38;100480.00;;;18.60
12854;BMP180;6495;51.808;7.478;2022-09-16T12:46:51;100473.00;;;18.70
12854;BMP180;6495;51.808;7.478;2022-09-16T12:50:03;100473.00;;;18.80
12854;BMP180;6495;51.808;7.478;2022-09-16T12:56:00;100468.00;;;18.80
12854;BMP180;6495;51.808;7.478;2022-09-16T12:59:02;100465.00;;;18.90
12854;BMP180;6495;51.808;7.478;2022-09-16T13:01:36;100457.00;;;19.00
12854;BMP180;6495;51.808;7.478;2022-09-16T13:04:13;100452.00;;;19.00
12854;BMP180;6495;51.808;7.478;2022-09-16T13:06:48;100442.00;;;19.00
12854;BMP180;6495;51.808;7.478;2022-09-16T13:09:23;100441.00;;;19.00
12854;BMP180;6495;51.808;7.478;2022-09-16T13:11:56;100442.00;;;19.00
12854;BMP180;6495;51.808;7.478;2022-09-16T13:14:50;100444.00;;;19.10
12854;BMP180;6495;51.808;7.478;2022-09-16T13:17:29;100442.00;;;19.10
12854;BMP180;6495;51.808;7.478;2022-09-16T13:20:04;100436.00;;;19.10
12854;BMP180;6495;51.808;7.478;2022-09-16T13:22:43;100435.00;;;19.10
12854;BMP180;6495;51.808;7.478;2022-09-16T13:25:22;100439.00;;;19.00
12854;BMP180;6495;51.808;7.478;2022-09-16T13:27:56;100442.00;;;19.10
12854;BMP180;6495;51.808;7.478;2022-09-16T13:30:35;100442.00;;;19.20
12854;BMP180;6495;51.808;7.478;2022-09-16T13:33:24;100442.00;;;19.20
12854;BMP180;6495;51.808;7.478;2022-09-16T13:36:15;100443.00;;;19.30
12854;BMP180;6495;51.808;7.478;2022-09-16T13:38:46;100433.00;;;19.30
12854;BMP180;6495;51.808;7.478;2022-09-16T13:41:34;100440.00;;;19.40
12854;BMP180;6495;51.808;7.478;2022-09-16T13:44:39;100434.00;;;19.50
12854;BMP180;6495;51.808;7.478;2022-09-16T13:47:17;100436.00;;;19.50
12854;BMP180;6495;51.808;7.478;2022-09-16T13:49:58;100439.00;;;19.50
12854;BMP180;6495;51.808;7.478;2022-09-16T13:52:30;100430.00;;;19.60
12854;BMP180;6495;51.808;7.478;2022-09-16T13:55:01;100427.00;;;19.70
12854;BMP180;6495;51.808;7.478;2022-09-16T13:57:57;100440.00;;;19.80
12854;BMP180;6495;51.808;7.478;2022-09-16T14:00:32;100432.00;;;19.70
12854;BMP180;6495;51.808;7.478;2022-09-16T14:03:31;100432.00;;;19.70
12854;BMP180;6495;51.808;7.478;2022-09-16T14:06:21;100439.00;;;19.80
12854;BMP180;6495;51.808;7.478;2022-09-16T14:09:02;100432.00;;;19.70
12854;BMP180;6495;51.808;7.478;2022-09-16T14:11:42;100434.00;;;19.70
12854;BMP180;6495;51.808;7.478;2022-09-16T14:14:21;100436.00;;;19.80
12854;BMP180;6495;51.808;7.478;2022-09-16T14:17:18;100445.00;;;19.70
12854;BMP180;6495;51.808;7.478;2022-09-16T14:19:50;100438.00;;;19.80
12854;BMP180;6495;51.808;7.478;2022-09-16T14:22:20;100448.00;;;19.90
12854;BMP180;6495;51.808;7.478;2022-09-16T14:24:53;100438.00;;;19.90
12854;BMP180;6495;51.808;7.478;2022-09-16T14:27:34;100435.00;;;20.00
12854;BMP180;6495;51.808;7.478;2022-09-16T14:30:14;100431.00;;;20.00
12854;BMP180;6495;51.808;7.478;2022-09-16T14:32:45;100428.00;;;20.00
12854;BMP180;6495;51.808;7.478;2022-09-16T14:35:20;100425.00;;;20.00
12854;BMP180;6495;51.808;7.478;2022-09-16T14:37:53;100427.00;;;20.00
12854;BMP180;6495;51.808;7.478;2022-09-16T14:40:24;100424.00;;;20.00
12854;BMP180;6495;51.808;7.478;2022-09-16T14:42:58;100429.00;;;20.00
12854;BMP180;6495;51.808;7.478;2022-09-16T14:45:31;100422.00;;;20.00
12854;BMP180;6495;51.808;7.478;2022-09-16T14:48:07;100426.00;;;20.00
12854;BMP180;6495;51.808;7.478;2022-09-16T14:50:40;100422.00;;;20.00
12854;BMP180;6495;51.808;7.478;2022-09-16T14:53:25;100419.00;;;19.90
12854;BMP180;6495;51.808;7.478;2022-09-16T14:56:05;100435.00;;;19.80
12854;BMP180;6495;51.808;7.478;2022-09-16T14:58:35;100418.00;;;19.70
12854;BMP180;6495;51.808;7.478;2022-09-16T15:01:10;100423.00;;;19.70
12854;BMP180;6495;51.808;7.478;2022-09-16T15:03:45;100415.00;;;19.60
12854;BMP180;6495;51.808;7.478;2022-09-16T15:06:18;100424.00;;;19.60
12854;BMP180;6495;51.808;7.478;2022-09-16T15:08:51;100418.00;;;19.50
12854;BMP180;6495;51.808;7.478;2022-09-16T15:11:25;100429.00;;;19.40
12854;BMP180;6495;51.808;7.478;2022-09-16T15:14:15;100421.00;;;19.30
12854;BMP180;6495;51.808;7.478;2022-09-16T15:17:01;100425.00;;;19.30
12854;BMP180;6495;51.808;7.478;2022-09-16T15:19:35;100428.00;;;19.30